createdAt,value
2023-05-22T00:00:02.305Z,99.90
2023-05-22T00:02:43.191Z,99.90
2023-05-22T00:05:13.410Z,99.90
2023-05-22T00:07:43.832Z,99.90
2023-05-22T00:10:12.829Z,99.90
2023-05-22T00:12:41.712Z,99.90
2023-05-22T00:15:11.658Z,99.90
2023-05-22T00:17:42.414Z,99.90
2023-05-22T00:20:12.119Z,99.90
2023-05-22T00:22:41.097Z,99.90
2023-05-22T00:25:11.496Z,99.90
2023-05-22T00:27:40.388Z,99.90
2023-05-22T00:30:10.170Z,99.90
2023-05-22T00:32:39.204Z,99.90
2023-05-22T00:35:11.145Z,99.90
2023-05-22T00:37:39.981Z,99.90
2023-05-22T00:40:10.213Z,99.90
2023-05-22T00:42:39.356Z,99.90
2023-05-22T00:45:09.489Z,99.90
2023-05-22T00:47:38.404Z,99.90
2023-05-22T00:50:11.100Z,99.90
2023-05-22T00:52:42.628Z,99.90
2023-05-22T00:55:12.678Z,99.90
2023-05-22T00:57:43.050Z,99.90
2023-05-22T01:00:14.355Z,99.90
2023-05-22T01:02:43.428Z,99.90
2023-05-22T01:05:18.366Z,99.90
2023-05-22T01:07:47.538Z,99.90
2023-05-22T01:10:16.312Z,99.90
2023-05-22T01:13:38.239Z,99.90
2023-05-22T01:16:14.469Z,99.90
2023-05-22T01:18:48.165Z,99.90
2023-05-22T01:21:23.349Z,99.90
2023-05-22T01:24:22.511Z,99.90
2023-05-22T01:27:26.266Z,99.90
2023-05-22T01:30:14.504Z,99.90
2023-05-22T01:32:47.953Z,99.90
2023-05-22T01:35:20.127Z,99.90
2023-05-22T01:37:50.767Z,99.90
2023-05-22T01:40:20.074Z,99.90
2023-05-22T01:42:49.035Z,99.90
2023-05-22T01:45:17.857Z,99.90
2023-05-22T01:47:48.653Z,99.90
2023-05-22T01:50:19.738Z,99.90
2023-05-22T01:53:08.072Z,99.90
2023-05-22T01:55:45.483Z,99.90
2023-05-22T01:58:22.731Z,99.90
2023-05-22T02:00:54.887Z,99.90
2023-05-22T02:03:31.644Z,99.90
2023-05-22T02:06:03.579Z,99.90
2023-05-22T02:08:33.282Z,99.90
2023-05-22T02:11:03.450Z,99.90
2023-05-22T02:13:35.842Z,99.90
2023-05-22T02:16:05.707Z,99.90
2023-05-22T02:18:35.964Z,99.90
2023-05-22T02:21:08.674Z,99.90
2023-05-22T02:23:38.059Z,99.90
2023-05-22T02:26:07.348Z,99.90
2023-05-22T02:28:36.186Z,99.90
2023-05-22T02:31:05.032Z,99.90
2023-05-22T02:33:33.795Z,99.90
2023-05-22T02:36:04.589Z,99.90
2023-05-22T02:38:33.285Z,99.90
2023-05-22T02:41:02.624Z,99.90
2023-05-22T02:43:31.329Z,99.90
2023-05-22T02:46:00.178Z,99.90
2023-05-22T02:48:29.840Z,99.90
2023-05-22T02:50:58.631Z,99.90
2023-05-22T02:53:29.464Z,99.90
2023-05-22T02:55:59.153Z,99.90
2023-05-22T02:58:28.019Z,99.90
2023-05-22T03:00:57.174Z,99.90
2023-05-22T03:03:26.289Z,99.90
2023-05-22T03:05:58.508Z,99.90
2023-05-22T03:08:29.773Z,99.90
2023-05-22T03:10:59.576Z,99.90
2023-05-22T03:13:28.598Z,99.90
2023-05-22T03:15:57.437Z,99.90
2023-05-22T03:18:27.636Z,99.90
2023-05-22T03:20:57.311Z,99.90
2023-05-22T03:23:26.489Z,99.90
2023-05-22T03:25:57.298Z,99.90
2023-05-22T03:28:29.583Z,99.90
2023-05-22T03:30:58.638Z,99.90
2023-05-22T03:33:32.329Z,99.90
2023-05-22T03:36:01.407Z,99.90
2023-05-22T03:38:30.223Z,99.90
2023-05-22T03:41:00.482Z,99.90
2023-05-22T03:43:29.259Z,99.90
2023-05-22T03:45:59.456Z,99.90
2023-05-22T03:48:29.365Z,99.90
2023-05-22T03:50:58.211Z,99.90
2023-05-22T03:53:26.944Z,99.90
2023-05-22T03:55:58.046Z,99.90
2023-05-22T03:58:28.431Z,99.90
2023-05-22T04:00:58.815Z,99.90
2023-05-22T04:03:28.382Z,99.90
2023-05-22T04:05:58.696Z,99.90
2023-05-22T04:08:27.673Z,99.90
2023-05-22T04:10:56.586Z,99.90
2023-05-22T04:13:25.940Z,99.90
2023-05-22T04:15:56.889Z,99.90
2023-05-22T04:18:25.593Z,99.90
2023-05-22T04:20:54.293Z,99.90
2023-05-22T04:23:23.704Z,99.90
2023-05-22T04:25:53.562Z,99.90
2023-05-22T04:28:23.518Z,99.90
2023-05-22T04:30:52.517Z,99.90
2023-05-22T04:33:22.851Z,99.90
2023-05-22T04:35:54.645Z,99.90
2023-05-22T04:38:26.457Z,99.90
2023-05-22T04:42:10.840Z,99.90
2023-05-22T04:44:39.579Z,99.90
2023-05-22T04:47:11.635Z,99.90
2023-05-22T04:49:42.541Z,99.90
2023-05-22T04:52:11.720Z,99.90
2023-05-22T04:54:41.512Z,99.90
2023-05-22T04:57:10.796Z,99.90
2023-05-22T04:59:41.528Z,99.90
2023-05-22T05:02:11.023Z,99.90
2023-05-22T05:04:41.476Z,99.90
2023-05-22T05:07:10.275Z,99.90
2023-05-22T05:09:39.474Z,99.90
2023-05-22T05:12:08.862Z,99.90
2023-05-22T05:14:37.840Z,99.90
2023-05-22T05:17:06.813Z,99.90
2023-05-22T05:19:37.003Z,99.90
2023-05-22T05:22:08.546Z,99.90
2023-05-22T05:25:04.392Z,99.90
2023-05-22T05:27:33.373Z,99.90
2023-05-22T05:30:03.839Z,99.90
2023-05-22T05:32:48.257Z,99.90
2023-05-22T05:35:26.234Z,99.90
2023-05-22T05:38:17.220Z,99.90
2023-05-22T05:40:47.055Z,99.90
2023-05-22T05:43:16.709Z,99.90
2023-05-22T05:45:46.311Z,99.90
2023-05-22T05:48:18.037Z,99.90
2023-05-22T05:50:49.222Z,99.90
2023-05-22T05:53:19.517Z,99.90
2023-05-22T05:55:56.346Z,99.90
2023-05-22T05:58:25.163Z,99.90
2023-05-22T06:01:05.988Z,99.90
2023-05-22T06:03:35.609Z,99.90
2023-05-22T06:06:17.600Z,99.90
2023-05-22T06:09:16.606Z,99.90
2023-05-22T06:12:23.604Z,99.90
2023-05-22T06:14:52.314Z,99.90
2023-05-22T06:17:22.077Z,99.90
2023-05-22T06:19:54.320Z,99.90
2023-05-22T06:22:25.985Z,99.90
2023-05-22T06:24:57.280Z,99.90
2023-05-22T06:27:29.006Z,99.90
2023-05-22T06:29:57.974Z,99.90
2023-05-22T06:32:31.289Z,99.90
2023-05-22T06:35:00.571Z,99.90
2023-05-22T06:38:49.000Z,99.90
2023-05-22T06:41:39.929Z,99.90
2023-05-22T06:44:12.274Z,99.90
2023-05-22T06:46:41.544Z,99.90
2023-05-22T06:49:13.698Z,99.90
2023-05-22T06:51:52.292Z,99.90
2023-05-22T06:54:21.580Z,99.90
2023-05-22T06:56:55.635Z,99.90
2023-05-22T06:59:26.859Z,99.90
2023-05-22T07:02:01.064Z,99.90
2023-05-22T07:04:48.321Z,99.90
2023-05-22T07:07:27.508Z,99.90
2023-05-22T07:09:59.313Z,99.90
2023-05-22T07:13:00.301Z,99.90
2023-05-22T07:15:29.674Z,99.90
2023-05-22T07:18:00.152Z,99.90
2023-05-22T07:20:29.262Z,99.90
2023-05-22T07:23:19.842Z,99.90
2023-05-22T07:25:48.631Z,99.90
2023-05-22T07:28:20.031Z,99.90
2023-05-22T07:31:04.343Z,99.90
2023-05-22T07:33:33.169Z,99.90
2023-05-22T07:36:02.224Z,99.90
2023-05-22T07:38:36.479Z,99.90
2023-05-22T07:41:06.261Z,99.90
2023-05-22T07:43:37.622Z,99.90
2023-05-22T07:46:07.482Z,99.80
2023-05-22T07:48:44.917Z,99.30
2023-05-22T07:51:14.445Z,99.30
2023-05-22T07:53:44.099Z,99.50
2023-05-22T07:56:13.590Z,98.90
2023-05-22T07:58:44.367Z,98.60
2023-05-22T08:01:13.374Z,99.10
2023-05-22T08:03:42.161Z,99.00
2023-05-22T08:06:11.015Z,99.20
2023-05-22T08:08:39.936Z,99.50
2023-05-22T08:11:08.736Z,98.50
2023-05-22T08:13:38.855Z,98.00
2023-05-22T08:16:17.461Z,97.80
2023-05-22T08:18:46.142Z,97.50
2023-05-22T08:21:14.930Z,97.50
2023-05-22T08:23:43.695Z,97.70
2023-05-22T08:26:12.466Z,97.60
2023-05-22T08:28:44.284Z,97.50
2023-05-22T08:31:16.524Z,97.40
2023-05-22T08:33:45.329Z,97.20
2023-05-22T08:36:14.561Z,96.10
2023-05-22T08:38:43.290Z,96.00
2023-05-22T08:41:12.912Z,96.00
2023-05-22T08:43:42.899Z,95.80
2023-05-22T08:46:11.976Z,95.50
2023-05-22T08:48:42.442Z,95.70
2023-05-22T08:51:16.619Z,94.80
2023-05-22T08:53:47.039Z,94.90
2023-05-22T08:56:16.751Z,94.20
2023-05-22T08:58:46.203Z,94.20
2023-05-22T09:01:15.979Z,94.40
2023-05-22T09:03:49.515Z,93.70
2023-05-22T09:06:18.804Z,93.50
2023-05-22T09:08:49.412Z,92.90
2023-05-22T09:11:19.724Z,92.90
2023-05-22T09:13:49.315Z,93.20
2023-05-22T09:16:46.870Z,93.40
2023-05-22T09:20:07.029Z,92.70
2023-05-22T09:22:39.685Z,93.20
2023-05-22T09:25:09.520Z,92.90
2023-05-22T09:27:38.706Z,92.40
2023-05-22T09:30:19.267Z,92.40
2023-05-22T09:32:53.340Z,92.30
2023-05-22T09:35:34.412Z,92.00
2023-05-22T09:38:13.449Z,92.10
2023-05-22T09:40:45.718Z,92.10
2023-05-22T09:43:19.548Z,92.40
2023-05-22T09:45:57.593Z,92.50
2023-05-22T09:48:27.203Z,92.60
2023-05-22T09:50:57.144Z,92.40
2023-05-22T09:53:29.937Z,92.50
2023-05-22T09:56:02.235Z,92.10
2023-05-22T09:58:35.409Z,92.30
2023-05-22T10:01:05.537Z,92.20
2023-05-22T10:03:35.947Z,91.80
2023-05-22T10:06:05.770Z,91.10
2023-05-22T10:08:53.323Z,91.10
2023-05-22T10:11:22.882Z,90.30
2023-05-22T10:13:52.266Z,90.60
2023-05-22T10:16:22.156Z,90.20
2023-05-22T10:18:51.386Z,90.00
2023-05-22T10:21:21.301Z,90.00
2023-05-22T10:23:52.493Z,89.70
2023-05-22T10:26:21.932Z,89.20
2023-05-22T10:29:00.905Z,87.00
2023-05-22T10:31:45.861Z,85.40
2023-05-22T10:34:32.297Z,86.60
2023-05-22T10:37:21.260Z,85.30
2023-05-22T10:40:04.450Z,84.80
2023-05-22T10:42:33.651Z,82.50
2023-05-22T10:45:03.180Z,83.30
2023-05-22T10:47:34.931Z,82.80
2023-05-22T10:50:10.207Z,82.20
2023-05-22T10:52:39.834Z,80.80
2023-05-22T10:55:12.973Z,80.60
2023-05-22T10:57:42.151Z,79.50
2023-05-22T11:00:13.386Z,78.80
2023-05-22T11:02:45.100Z,78.30
2023-05-22T11:05:41.219Z,78.00
2023-05-22T11:08:34.481Z,77.10
2023-05-22T11:11:12.854Z,75.70
2023-05-22T11:13:45.182Z,74.80
2023-05-22T11:16:17.808Z,73.00
2023-05-22T11:18:47.250Z,71.30
2023-05-22T11:21:16.906Z,70.00
2023-05-22T11:23:46.682Z,69.60
2023-05-22T11:26:26.334Z,68.70
2023-05-22T11:28:56.997Z,68.20
2023-05-22T11:31:27.011Z,68.70
2023-05-22T11:33:56.393Z,68.00
2023-05-22T11:36:25.384Z,67.90
2023-05-22T11:39:11.499Z,67.50
2023-05-22T11:41:52.439Z,63.30
2023-05-22T11:44:21.856Z,63.70
2023-05-22T11:46:54.595Z,63.60
2023-05-22T11:49:25.498Z,60.40
2023-05-22T11:51:54.428Z,60.00
2023-05-22T11:54:24.357Z,63.80
2023-05-22T11:56:54.870Z,64.30
2023-05-22T11:59:26.963Z,63.70
2023-05-22T12:01:58.911Z,63.20
2023-05-22T12:04:27.598Z,62.40
2023-05-22T12:06:57.129Z,62.00
2023-05-22T12:09:31.565Z,61.60
2023-05-22T12:12:02.046Z,60.00
2023-05-22T12:14:32.452Z,60.30
2023-05-22T12:17:02.163Z,60.40
2023-05-22T12:19:31.436Z,60.40
2023-05-22T12:22:00.736Z,60.20
2023-05-22T12:24:39.670Z,60.70
2023-05-22T12:27:12.266Z,59.50
2023-05-22T12:29:41.962Z,60.80
2023-05-22T12:32:13.275Z,60.00
2023-05-22T12:34:46.627Z,60.20
2023-05-22T12:37:23.127Z,60.30
2023-05-22T12:39:56.733Z,58.90
2023-05-22T12:42:27.992Z,58.90
2023-05-22T12:45:01.632Z,58.40
2023-05-22T12:47:30.588Z,58.70
2023-05-22T12:49:59.448Z,59.60
2023-05-22T12:52:28.293Z,58.30
2023-05-22T12:54:57.022Z,58.10
2023-05-22T12:57:27.165Z,58.60
2023-05-22T12:59:56.220Z,58.80
2023-05-22T13:02:25.106Z,57.70
2023-05-22T13:05:10.508Z,57.20
2023-05-22T13:07:39.779Z,56.20
2023-05-22T13:10:40.281Z,56.40
2023-05-22T13:13:14.257Z,56.40
2023-05-22T13:15:43.577Z,55.20
2023-05-22T13:18:13.053Z,54.40
2023-05-22T13:20:41.885Z,54.40
2023-05-22T13:23:13.996Z,54.70
2023-05-22T13:25:51.844Z,54.30
2023-05-22T13:28:25.555Z,54.00
2023-05-22T13:30:54.975Z,54.00
2023-05-22T13:33:23.823Z,53.80
2023-05-22T13:35:52.850Z,53.90
2023-05-22T13:38:21.612Z,54.30
2023-05-22T13:40:50.388Z,54.30
2023-05-22T13:43:19.193Z,54.40
2023-05-22T13:45:51.603Z,53.60
2023-05-22T13:48:20.392Z,53.60
2023-05-22T13:50:51.197Z,53.80
2023-05-22T13:53:21.646Z,52.70
2023-05-22T13:55:50.857Z,51.20
2023-05-22T13:58:19.512Z,51.30
2023-05-22T14:00:48.351Z,51.20
2023-05-22T14:03:19.929Z,51.50
2023-05-22T14:05:48.752Z,51.70
2023-05-22T14:08:17.612Z,51.90
2023-05-22T14:10:46.552Z,52.10
2023-05-22T14:13:15.438Z,52.20
2023-05-22T14:15:46.982Z,52.60
2023-05-22T14:18:17.781Z,52.90
2023-05-22T14:20:50.942Z,52.70
2023-05-22T14:23:20.081Z,52.70
2023-05-22T14:25:49.291Z,53.10
2023-05-22T14:28:18.396Z,53.10
2023-05-22T14:30:47.384Z,53.10
2023-05-22T14:33:17.612Z,53.00
2023-05-22T14:35:46.159Z,53.10
2023-05-22T14:38:15.111Z,52.80
2023-05-22T14:40:44.004Z,52.90
2023-05-22T14:43:12.727Z,52.80
2023-05-22T14:45:41.576Z,52.80
2023-05-22T14:48:11.614Z,51.90
2023-05-22T14:50:41.709Z,51.50
2023-05-22T14:53:10.254Z,51.50
2023-05-22T14:55:38.993Z,51.60
2023-05-22T14:58:07.692Z,50.70
2023-05-22T15:00:36.520Z,50.70
2023-05-22T15:03:05.623Z,50.40
2023-05-22T15:05:34.224Z,50.30
2023-05-22T15:08:04.294Z,50.30
2023-05-22T15:10:32.873Z,50.40
2023-05-22T15:13:01.528Z,51.00
2023-05-22T15:15:29.949Z,50.90
2023-05-22T15:18:02.666Z,51.00
2023-05-22T15:20:31.471Z,49.20
2023-05-22T15:23:01.280Z,50.00
2023-05-22T15:25:33.957Z,50.00
2023-05-22T15:28:02.760Z,50.70
2023-05-22T15:30:35.518Z,50.10
2023-05-22T15:33:04.608Z,50.10
2023-05-22T15:35:33.451Z,49.90
2023-05-22T15:38:03.173Z,50.60
2023-05-22T15:40:33.506Z,50.60
2023-05-22T15:43:04.068Z,51.80
2023-05-22T15:45:33.061Z,50.20
2023-05-22T15:48:01.789Z,49.50
2023-05-22T15:50:30.418Z,49.50
2023-05-22T15:52:59.051Z,49.80
2023-05-22T15:55:27.571Z,50.00
2023-05-22T15:57:59.038Z,50.40
2023-05-22T16:00:28.497Z,51.40
2023-05-22T16:02:57.277Z,50.90
2023-05-22T16:05:26.155Z,50.80
2023-05-22T16:07:54.815Z,50.50
2023-05-22T16:10:23.273Z,50.30
2023-05-22T16:12:51.734Z,50.70
2023-05-22T16:15:21.834Z,51.10
2023-05-22T16:17:50.619Z,49.60
2023-05-22T16:20:20.312Z,50.40
2023-05-22T16:22:50.722Z,49.70
2023-05-22T16:25:19.736Z,49.50
2023-05-22T16:27:48.273Z,49.70
2023-05-22T16:30:18.246Z,49.80
2023-05-22T16:32:49.233Z,50.10
2023-05-22T16:35:19.745Z,50.00
2023-05-22T16:37:48.363Z,50.10
2023-05-22T16:40:17.674Z,49.50
2023-05-22T16:42:46.413Z,49.10
2023-05-22T16:45:15.017Z,48.50
2023-05-22T16:47:43.619Z,47.50
2023-05-22T16:50:13.928Z,47.20
2023-05-22T16:52:42.583Z,46.50
2023-05-22T16:55:11.571Z,45.20
2023-05-22T16:57:40.420Z,43.70
2023-05-22T17:00:11.034Z,42.80
2023-05-22T17:02:39.717Z,42.30
2023-05-22T17:05:09.260Z,41.40
2023-05-22T17:07:39.634Z,40.60
2023-05-22T17:10:09.247Z,40.00
2023-05-22T17:12:37.918Z,39.30
2023-05-22T17:15:07.553Z,38.70
2023-05-22T17:17:36.156Z,38.10
2023-05-22T17:20:06.864Z,38.10
2023-05-22T17:22:36.659Z,38.10
2023-05-22T17:25:08.198Z,38.60
2023-05-22T17:27:37.105Z,39.00
2023-05-22T17:30:07.715Z,39.80
2023-05-22T17:32:36.487Z,40.10
2023-05-22T17:35:06.844Z,39.90
2023-05-22T17:37:35.767Z,39.90
2023-05-22T17:40:04.919Z,39.80
2023-05-22T17:42:34.927Z,38.90
2023-05-22T17:45:03.626Z,38.90
2023-05-22T17:47:32.356Z,39.40
2023-05-22T17:50:01.183Z,38.90
2023-05-22T17:52:29.852Z,39.50
2023-05-22T17:54:58.486Z,40.20
2023-05-22T17:57:27.043Z,41.00
2023-05-22T17:59:57.171Z,41.70
2023-05-22T18:02:26.657Z,42.90
2023-05-22T18:04:55.532Z,43.90
2023-05-22T18:07:24.224Z,45.20
2023-05-22T18:09:52.823Z,46.30
2023-05-22T18:12:31.158Z,47.20
2023-05-22T18:15:02.071Z,48.00
2023-05-22T18:17:30.900Z,49.00
2023-05-22T18:19:59.734Z,49.50
2023-05-22T18:22:28.619Z,50.00
2023-05-22T18:24:57.441Z,51.10
2023-05-22T18:27:26.150Z,51.90
2023-05-22T18:29:55.572Z,52.60
2023-05-22T18:32:25.892Z,53.60
2023-05-22T18:34:54.872Z,54.40
2023-05-22T18:37:23.497Z,55.30
2023-05-22T18:39:52.380Z,56.50
2023-05-22T18:42:21.292Z,57.10
2023-05-22T18:44:50.698Z,57.80
2023-05-22T18:47:19.547Z,58.10
2023-05-22T18:49:49.710Z,58.70
2023-05-22T18:52:18.431Z,59.40
2023-05-22T18:54:47.088Z,59.90
2023-05-22T18:57:15.935Z,60.90
2023-05-22T18:59:46.231Z,61.40
2023-05-22T19:02:16.516Z,61.80
2023-05-22T19:04:45.783Z,62.90
2023-05-22T19:07:16.059Z,63.50
2023-05-22T19:09:44.778Z,63.70
2023-05-22T19:12:13.371Z,64.40
2023-05-22T19:14:42.998Z,64.80
2023-05-22T19:17:11.600Z,65.30
2023-05-22T19:19:40.288Z,65.80
2023-05-22T19:22:09.086Z,66.50
2023-05-22T19:24:39.178Z,66.80
2023-05-22T19:27:07.972Z,67.80
2023-05-22T19:29:36.876Z,68.50
2023-05-22T19:32:05.719Z,69.50
2023-05-22T19:34:34.468Z,70.20
2023-05-22T19:37:03.007Z,71.20
2023-05-22T19:39:31.506Z,71.80
2023-05-22T19:42:01.536Z,72.60
2023-05-22T19:44:30.327Z,73.20
2023-05-22T19:46:59.214Z,73.70
2023-05-22T19:49:28.056Z,74.20
2023-05-22T19:51:56.676Z,74.70
2023-05-22T19:54:25.574Z,75.50
2023-05-22T19:56:54.454Z,76.60
2023-05-22T19:59:24.710Z,77.20
2023-05-22T20:01:54.062Z,78.10
2023-05-22T20:04:23.340Z,78.50
2023-05-22T20:06:52.102Z,79.30
2023-05-22T20:09:20.837Z,80.20
2023-05-22T20:11:49.753Z,80.50
2023-05-22T20:14:18.624Z,81.70
2023-05-22T20:16:48.930Z,82.00
2023-05-22T20:19:17.866Z,82.70
2023-05-22T20:22:15.334Z,83.20
2023-05-22T20:24:43.988Z,84.10
2023-05-22T20:27:12.820Z,84.50
2023-05-22T20:29:41.610Z,85.40
2023-05-22T20:32:12.624Z,86.00
2023-05-22T20:34:41.478Z,86.90
2023-05-22T20:37:36.008Z,88.00
2023-05-22T20:40:05.376Z,88.80
2023-05-22T20:42:35.029Z,89.10
2023-05-22T20:45:03.954Z,89.60
2023-05-22T20:47:36.187Z,89.90
2023-05-22T20:50:06.293Z,90.10
2023-05-22T20:53:03.133Z,90.30
2023-05-22T20:55:35.238Z,90.60
2023-05-22T20:58:04.220Z,90.70
2023-05-22T21:00:35.148Z,90.80
2023-05-22T21:03:07.733Z,90.90
2023-05-22T21:05:36.939Z,91.00
2023-05-22T21:08:05.907Z,91.10
2023-05-22T21:10:34.900Z,91.30
2023-05-22T21:13:03.682Z,91.60
2023-05-22T21:15:32.510Z,92.00
2023-05-22T21:18:01.308Z,92.30
2023-05-22T21:20:31.632Z,92.50
2023-05-22T21:23:00.369Z,92.90
2023-05-22T21:25:29.239Z,93.10
2023-05-22T21:27:58.111Z,93.40
2023-05-22T21:30:26.833Z,93.70
2023-05-22T21:32:56.414Z,94.10
2023-05-22T21:35:25.411Z,94.30
2023-05-22T21:37:55.751Z,94.70
2023-05-22T21:40:24.894Z,95.00
2023-05-22T21:42:53.786Z,95.30
2023-05-22T21:45:22.848Z,95.80
2023-05-22T21:47:51.783Z,96.20
2023-05-22T21:50:20.719Z,96.70
2023-05-22T21:52:49.532Z,97.30
2023-05-22T21:55:19.787Z,97.60
2023-05-22T21:58:18.755Z,98.00
2023-05-22T22:00:47.497Z,98.70
2023-05-22T22:03:16.544Z,99.20
2023-05-22T22:05:45.521Z,99.90
2023-05-22T22:08:14.483Z,99.90
2023-05-22T22:10:45.096Z,99.90
2023-05-22T22:13:14.116Z,99.90
2023-05-22T22:15:43.170Z,99.90
2023-05-22T22:18:15.132Z,99.90
2023-05-22T22:20:45.543Z,99.90
2023-05-22T22:23:15.112Z,99.90
2023-05-22T22:25:45.568Z,99.90
2023-05-22T22:28:14.450Z,99.90
2023-05-22T22:30:43.387Z,99.90
2023-05-22T22:33:13.186Z,99.90
2023-05-22T22:35:42.547Z,99.90
2023-05-22T22:38:11.622Z,99.90
2023-05-22T22:40:40.828Z,99.90
2023-05-22T22:43:11.692Z,99.90
2023-05-22T22:45:41.205Z,99.90
2023-05-22T22:48:10.238Z,99.90
2023-05-22T22:50:39.322Z,99.90
2023-05-22T22:53:08.455Z,99.90
2023-05-22T22:55:37.742Z,99.90
2023-05-22T22:58:07.974Z,99.90
2023-05-22T23:00:38.204Z,99.90
2023-05-22T23:03:07.167Z,99.90
2023-05-22T23:05:36.189Z,99.90
2023-05-22T23:08:04.950Z,99.90
2023-05-22T23:10:34.031Z,99.90
2023-05-22T23:13:02.701Z,99.90
2023-05-22T23:15:31.887Z,99.90
2023-05-22T23:18:02.320Z,99.90
2023-05-22T23:20:31.243Z,99.90
2023-05-22T23:23:00.002Z,99.90
2023-05-22T23:25:28.654Z,99.90
2023-05-22T23:27:57.471Z,99.90
2023-05-22T23:30:26.451Z,99.90
2023-05-22T23:32:55.406Z,99.90
2023-05-22T23:35:26.347Z,99.90
2023-05-22T23:37:55.038Z,99.90
2023-05-22T23:40:24.086Z,99.90
2023-05-22T23:42:54.001Z,99.90
2023-05-22T23:45:23.075Z,99.90
2023-05-22T23:47:51.772Z,99.90
2023-05-22T23:50:20.463Z,99.90
2023-05-22T23:52:50.561Z,99.90
2023-05-22T23:55:19.336Z,99.90
2023-05-22T23:57:47.992Z,99.90
